Time;durP1;ratioP1;P1;durP2;ratioP2;P2;SDS_P1;SDS_P2;PMS_P1;PMS_P2;Temp;Humidity;BMP_temperature;BMP_pressure;BME280_temperature;BME280_humidity;BME280_pressure;Samples;Min_cycle;Max_cycle;Signal;HPM_P1;HPM_P2
2021/10/07 00:01:56;;;;;;;0.63;0.40;;;9.90;94.50;;;;;;5096186;28;20082;-82
2021/10/07 00:04:22;;;;;;;0.80;0.63;;;10.00;94.50;;;;;;5096251;28;20075;-83
2021/10/07 00:06:48;;;;;;;0.90;0.70;;;10.00;94.50;;;;;;5097434;28;20428;-83
2021/10/07 00:09:14;;;;;;;0.70;0.57;;;10.00;94.40;;;;;;5081221;28;20398;-83
2021/10/07 00:11:42;;;;;;;0.70;0.63;;;9.90;94.40;;;;;;5079944;28;20461;-83
2021/10/07 00:14:08;;;;;;;0.82;0.70;;;10.00;94.40;;;;;;5064234;28;20036;-82
2021/10/07 00:16:34;;;;;;;0.85;0.63;;;10.00;94.40;;;;;;5097631;28;20048;-82
2021/10/07 00:19:00;;;;;;;1.00;0.80;;;10.00;94.40;;;;;;5097474;28;20115;-82
2021/10/07 00:21:25;;;;;;;0.60;0.50;;;10.00;94.40;;;;;;5115482;28;20043;-82
2021/10/07 00:26:29;;;;;;;0.45;0.40;;;10.00;94.40;;;;;;5098658;28;20043;-82
2021/10/07 00:28:59;;;;;;;0.47;0.43;;;10.10;94.40;;;;;;5063684;28;20074;-82
2021/10/07 00:31:29;;;;;;;0.45;0.30;;;10.10;94.40;;;;;;5115942;28;20132;-82
2021/10/07 00:36:58;;;;;;;0.55;0.50;;;10.10;94.40;;;;;;5099488;28;20127;-82
2021/10/07 00:39:23;;;;;;;0.57;0.52;;;10.20;94.40;;;;;;5083894;28;20043;-80
2021/10/07 00:41:51;;;;;;;0.60;0.60;;;10.20;94.40;;;;;;5077778;28;20036;-82
2021/10/07 00:44:17;;;;;;;0.40;0.40;;;10.30;94.40;;;;;;5107580;28;20405;-82
2021/10/07 00:46:59;;;;;;;0.50;0.50;;;10.30;94.30;;;;;;5111082;28;20032;-82
2021/10/07 00:49:28;;;;;;;0.70;0.50;;;10.30;94.30;;;;;;5113159;28;20031;-82
2021/10/07 00:51:54;;;;;;;0.68;0.52;;;10.30;94.30;;;;;;5123469;28;20031;-82
2021/10/07 00:54:23;;;;;;;0.40;0.40;;;10.40;94.30;;;;;;5090044;28;20059;-82
2021/10/07 00:56:49;;;;;;;1.25;0.70;;;10.40;94.30;;;;;;5121113;28;20123;-82
2021/10/07 00:59:15;;;;;;;0.38;0.32;;;10.50;94.30;;;;;;5085766;28;20119;-82
2021/10/07 01:01:42;;;;;;;0.80;0.60;;;10.50;94.20;;;;;;5119214;28;20032;-82
2021/10/07 01:04:08;;;;;;;1.20;0.80;;;10.50;94.30;;;;;;5100285;28;20036;-82
2021/10/07 01:06:34;;;;;;;0.30;0.30;;;10.50;94.20;;;;;;5118186;28;20496;-82
2021/10/07 01:09:02;;;;;;;0.50;0.50;;;10.50;94.20;;;;;;5066121;28;20517;-82
2021/10/07 01:11:28;;;;;;;1.05;0.60;;;10.50;94.20;;;;;;5102633;28;20039;-82
2021/10/07 01:13:55;;;;;;;0.45;0.45;;;10.60;94.20;;;;;;5087004;28;20063;-82
2021/10/07 01:16:21;;;;;;;0.45;0.45;;;10.50;94.20;;;;;;5120350;28;20036;-82
2021/10/07 01:18:47;;;;;;;0.30;0.30;;;10.60;94.10;;;;;;5118523;28;20039;-81
2021/10/07 01:21:14;;;;;;;0.65;0.40;;;10.60;94.20;;;;;;5119782;28;20040;-81
2021/10/07 01:23:42;;;;;;;0.73;0.55;;;10.70;94.20;;;;;;5119156;28;20040;-81
2021/10/07 01:26:10;;;;;;;0.70;0.60;;;10.60;94.20;;;;;;5100135;28;20039;-81
2021/10/07 01:28:39;;;;;;;0.55;0.55;;;10.60;94.20;;;;;;5119794;28;20067;-81
2021/10/07 01:31:06;;;;;;;0.75;0.60;;;10.70;94.20;;;;;;5119350;28;20040;-81
2021/10/07 01:33:32;;;;;;;0.68;0.65;;;10.70;94.10;;;;;;5083100;28;20397;-82
2021/10/07 01:35:58;;;;;;;0.75;0.60;;;10.70;94.10;;;;;;5067549;28;20039;-82
2021/10/07 01:38:23;;;;;;;0.63;0.50;;;10.70;94.10;;;;;;5084094;28;20493;-82
2021/10/07 01:40:49;;;;;;;0.40;0.40;;;10.80;94.10;;;;;;5097412;28;20038;-82
2021/10/07 01:43:15;;;;;;;0.70;0.50;;;10.80;94.10;;;;;;5083184;28;20047;-82
2021/10/07 01:45:41;;;;;;;0.65;0.60;;;10.80;94.10;;;;;;5084449;28;20040;-82
2021/10/07 01:48:07;;;;;;;1.00;0.63;;;10.80;94.10;;;;;;5066053;28;20089;-81
2021/10/07 01:50:33;;;;;;;0.90;0.70;;;10.80;94.10;;;;;;5085877;28;20043;-81
2021/10/07 01:52:59;;;;;;;1.02;0.90;;;10.80;94.10;;;;;;5100745;28;20078;-82
2021/10/07 01:55:25;;;;;;;0.75;0.70;;;10.90;94.10;;;;;;5083519;28;20040;-81
2021/10/07 01:57:51;;;;;;;0.40;0.40;;;10.90;94.10;;;;;;5117924;28;20073;-81
2021/10/07 02:00:17;;;;;;;0.70;0.68;;;10.90;94.10;;;;;;5083772;28;20457;-81
2021/10/07 02:02:43;;;;;;;0.30;0.30;;;10.90;94.10;;;;;;5086908;28;20074;-81
2021/10/07 02:05:10;;;;;;;0.32;0.32;;;10.90;94.10;;;;;;5108896;28;20044;-81
2021/10/07 02:07:35;;;;;;;0.50;0.50;;;10.90;94.10;;;;;;5128054;28;20043;-81
2021/10/07 02:10:04;;;;;;;0.32;0.32;;;11.00;94.10;;;;;;5107366;28;20512;-82
2021/10/07 02:12:29;;;;;;;0.45;0.45;;;10.90;94.10;;;;;;5099433;28;20382;-81
2021/10/07 02:14:55;;;;;;;0.43;0.35;;;10.90;94.10;;;;;;5098807;28;20046;-81
2021/10/07 02:17:21;;;;;;;0.50;0.50;;;11.00;94.10;;;;;;5081286;28;20527;-81
2021/10/07 02:19:47;;;;;;;0.93;0.55;;;11.00;94.10;;;;;;5098092;28;20047;-81
2021/10/07 02:22:13;;;;;;;0.38;0.30;;;11.00;94.10;;;;;;5098037;28;20044;-81
2021/10/07 02:24:39;;;;;;;0.68;0.55;;;10.90;94.00;;;;;;5117256;28;20061;-81
2021/10/07 02:27:05;;;;;;;0.55;0.50;;;10.90;94.10;;;;;;5099522;28;20493;-81
2021/10/07 02:29:30;;;;;;;0.63;0.50;;;10.90;94.10;;;;;;5082959;28;20044;-82
2021/10/07 02:31:56;;;;;;;0.70;0.68;;;10.90;94.10;;;;;;5082996;28;20447;-81
2021/10/07 02:34:22;;;;;;;0.80;0.70;;;10.90;94.10;;;;;;5100645;28;20451;-82
2021/10/07 02:36:47;;;;;;;0.77;0.55;;;11.00;94.10;;;;;;5065094;28;20493;-82
2021/10/07 02:39:13;;;;;;;1.08;0.77;;;10.90;94.10;;;;;;5082338;28;20383;-82
2021/10/07 02:41:39;;;;;;;0.50;0.50;;;11.00;94.10;;;;;;5082539;28;20086;-81
2021/10/07 02:44:05;;;;;;;0.55;0.55;;;10.90;94.10;;;;;;5082848;28;20031;-81
2021/10/07 02:46:31;;;;;;;2.60;0.73;;;11.00;94.10;;;;;;5118943;28;20040;-81
2021/10/07 02:48:56;;;;;;;0.60;0.40;;;11.00;94.10;;;;;;5102134;28;20027;-81
2021/10/07 02:51:22;;;;;;;0.57;0.50;;;11.00;94.00;;;;;;5099607;28;20485;-81
2021/10/07 02:53:48;;;;;;;0.75;0.40;;;10.90;94.00;;;;;;5082248;28;20036;-81
2021/10/07 02:56:14;;;;;;;0.40;0.40;;;10.90;94.00;;;;;;5082432;28;20036;-82
2021/10/07 02:58:40;;;;;;;0.40;0.40;;;10.90;94.10;;;;;;5098098;28;20058;-81
2021/10/07 03:01:06;;;;;;;0.65;0.43;;;10.90;94.10;;;;;;5081214;28;20151;-81
2021/10/07 03:03:32;;;;;;;0.60;0.45;;;10.80;94.10;;;;;;5098353;28;20505;-81
2021/10/07 03:05:58;;;;;;;0.93;0.45;;;10.90;94.10;;;;;;5098153;28;20077;-81
2021/10/07 03:08:27;;;;;;;0.65;0.60;;;10.90;94.10;;;;;;5119046;28;20032;-80
2021/10/07 03:10:54;;;;;;;0.68;0.52;;;10.90;94.10;;;;;;5103357;28;20058;-81
2021/10/07 03:13:20;;;;;;;1.40;0.80;;;10.90;94.10;;;;;;5097815;28;20501;-81
2021/10/07 03:15:46;;;;;;;0.40;0.40;;;10.90;94.10;;;;;;5100781;28;20038;-81
2021/10/07 03:18:12;;;;;;;0.95;0.60;;;10.80;94.10;;;;;;5084483;28;20031;-81
2021/10/07 03:20:38;;;;;;;0.65;0.63;;;10.80;94.10;;;;;;5101303;28;20040;-81
2021/10/07 03:23:03;;;;;;;0.25;0.22;;;10.80;94.10;;;;;;5118510;28;20045;-81
2021/10/07 03:25:29;;;;;;;0.35;0.32;;;10.90;94.10;;;;;;5081798;28;20449;-81
2021/10/07 03:27:55;;;;;;;0.52;0.47;;;10.80;94.10;;;;;;5117253;28;20112;-81
2021/10/07 03:30:21;;;;;;;0.80;0.60;;;10.80;94.10;;;;;;5098761;28;20035;-80
2021/10/07 03:32:47;;;;;;;1.00;0.60;;;10.80;94.10;;;;;;5100066;28;20051;-81
2021/10/07 03:35:12;;;;;;;0.47;0.47;;;10.80;94.10;;;;;;5065221;28;20042;-80
2021/10/07 03:37:38;;;;;;;0.52;0.43;;;10.80;94.10;;;;;;5098116;28;20462;-81
2021/10/07 03:40:07;;;;;;;1.15;0.70;;;10.80;94.10;;;;;;5116447;28;20039;-81
2021/10/07 03:42:33;;;;;;;0.90;0.70;;;10.70;94.10;;;;;;5117731;28;20047;-81
2021/10/07 03:45:02;;;;;;;1.00;0.73;;;10.70;94.20;;;;;;5098302;28;20404;-81
2021/10/07 03:47:28;;;;;;;0.95;0.60;;;10.70;94.20;;;;;;5116798;28;20051;-81
2021/10/07 03:49:56;;;;;;;0.80;0.60;;;10.70;94.20;;;;;;5097255;28;20043;-81
2021/10/07 03:52:22;;;;;;;0.60;0.60;;;10.60;94.20;;;;;;5097967;28;20127;-81
2021/10/07 03:54:48;;;;;;;0.52;0.43;;;10.60;94.20;;;;;;5098515;28;20043;-80
2021/10/07 03:57:14;;;;;;;2.30;0.77;;;10.60;94.20;;;;;;5081284;28;20127;-81
2021/10/07 03:59:40;;;;;;;0.95;0.70;;;10.60;94.20;;;;;;5117652;28;20035;-80
2021/10/07 04:02:05;;;;;;;0.57;0.55;;;10.60;94.20;;;;;;5117298;28;20024;-80
2021/10/07 04:04:31;;;;;;;0.50;0.47;;;10.60;94.20;;;;;;5081648;28;20036;-81
2021/10/07 04:06:57;;;;;;;0.40;0.40;;;10.60;94.50;;;;;;5082037;28;20040;-81
2021/10/07 04:09:22;;;;;;;0.95;0.60;;;10.60;94.20;;;;;;5064901;28;20485;-80
2021/10/07 04:11:48;;;;;;;0.70;0.50;;;10.60;94.20;;;;;;5116351;28;20097;-80
2021/10/07 04:14:14;;;;;;;0.50;0.47;;;10.50;94.20;;;;;;5116975;28;20502;-80
2021/10/07 04:16:40;;;;;;;0.52;0.50;;;10.50;94.20;;;;;;5081457;28;20046;-81
2021/10/07 04:19:05;;;;;;;0.50;0.45;;;10.50;94.20;;;;;;5082163;28;20036;-81
2021/10/07 04:21:31;;;;;;;1.13;0.82;;;10.50;94.30;;;;;;5066220;28;20481;-81
2021/10/07 04:23:57;;;;;;;0.50;0.50;;;10.40;94.20;;;;;;5100553;28;20044;-81
2021/10/07 04:26:23;;;;;;;0.60;0.43;;;10.50;94.20;;;;;;5118167;28;20036;-81
2021/10/07 04:28:49;;;;;;;0.85;0.73;;;10.50;94.20;;;;;;5065968;28;20563;-81
2021/10/07 04:31:14;;;;;;;1.10;0.70;;;10.50;94.20;;;;;;5117122;28;20047;-81
2021/10/07 04:33:40;;;;;;;0.70;0.60;;;10.50;94.20;;;;;;5099445;28;20035;-81
2021/10/07 04:36:06;;;;;;;1.35;0.68;;;10.50;94.20;;;;;;5066212;28;20505;-80
2021/10/07 04:38:32;;;;;;;0.73;0.50;;;10.50;94.20;;;;;;5119775;28;20498;-79
2021/10/07 04:40:57;;;;;;;0.40;0.40;;;10.50;94.20;;;;;;5121657;28;20477;-81
2021/10/07 04:43:23;;;;;;;0.82;0.70;;;10.50;94.20;;;;;;5121040;28;20043;-80
2021/10/07 04:45:49;;;;;;;0.77;0.60;;;10.50;94.20;;;;;;5066684;28;20031;-80
2021/10/07 04:48:15;;;;;;;1.20;0.73;;;10.50;94.20;;;;;;5083293;28;20123;-80
2021/10/07 04:50:41;;;;;;;0.60;0.60;;;10.40;94.10;;;;;;5119306;28;20079;-79
2021/10/07 04:53:07;;;;;;;0.90;0.60;;;10.40;94.20;;;;;;5085066;28;20479;-80
2021/10/07 04:55:33;;;;;;;1.05;0.80;;;10.40;94.20;;;;;;5120537;28;20031;-80
2021/10/07 04:57:59;;;;;;;0.70;0.50;;;10.50;94.20;;;;;;5084099;28;20059;-80
2021/10/07 05:00:25;;;;;;;0.20;0.20;;;10.50;94.20;;;;;;5120639;28;20127;-81
2021/10/07 05:02:50;;;;;;;0.50;0.47;;;10.40;94.20;;;;;;5124712;28;20047;-81
2021/10/07 05:05:16;;;;;;;0.70;0.50;;;10.50;94.20;;;;;;5085412;28;20435;-80
2021/10/07 05:07:43;;;;;;;0.47;0.40;;;10.50;94.20;;;;;;5108291;28;20055;-80
2021/10/07 05:10:10;;;;;;;0.43;0.43;;;10.40;94.20;;;;;;5123888;28;20118;-80
2021/10/07 05:12:36;;;;;;;0.80;0.52;;;10.40;94.20;;;;;;5124372;28;20118;-80
2021/10/07 05:15:02;;;;;;;3.72;0.70;;;10.30;94.10;;;;;;5104327;28;20050;-80
2021/10/07 05:17:28;;;;;;;0.60;0.60;;;10.30;94.10;;;;;;5092787;28;20397;-81
2021/10/07 05:19:54;;;;;;;0.40;0.40;;;10.30;94.10;;;;;;5087056;28;20035;-82
2021/10/07 05:22:19;;;;;;;0.40;0.40;;;10.30;94.10;;;;;;5105547;28;20050;-82
2021/10/07 05:24:45;;;;;;;0.60;0.40;;;10.30;94.10;;;;;;5088443;28;20035;-82
2021/10/07 05:27:13;;;;;;;0.50;0.50;;;10.20;94.10;;;;;;5106859;28;20093;-82
2021/10/07 05:29:38;;;;;;;0.65;0.65;;;10.20;94.10;;;;;;5087103;28;20036;-82
2021/10/07 05:32:04;;;;;;;0.75;0.68;;;10.20;94.10;;;;;;5069743;28;20031;-81
2021/10/07 05:34:30;;;;;;;0.40;0.40;;;10.30;94.10;;;;;;5102167;28;20086;-81
2021/10/07 05:36:56;;;;;;;0.63;0.50;;;10.20;94.10;;;;;;5102408;28;20126;-81
2021/10/07 05:39:21;;;;;;;0.50;0.50;;;10.10;94.10;;;;;;5100361;28;20035;-81
2021/10/07 05:41:47;;;;;;;0.50;0.50;;;10.10;94.20;;;;;;5097399;28;20039;-81
2021/10/07 05:44:13;;;;;;;0.20;0.20;;;10.20;94.20;;;;;;5116868;28;20496;-81
2021/10/07 05:46:42;;;;;;;0.77;0.50;;;10.10;94.10;;;;;;5097731;28;20486;-81
2021/10/07 05:49:07;;;;;;;0.90;0.65;;;10.10;94.10;;;;;;5118298;28;20063;-81
2021/10/07 05:51:34;;;;;;;0.60;0.50;;;10.10;94.10;;;;;;5100544;28;20046;-81
2021/10/07 05:54:00;;;;;;;0.80;0.70;;;10.10;94.10;;;;;;5103280;28;20060;-80
2021/10/07 05:56:26;;;;;;;0.70;0.55;;;10.10;94.10;;;;;;5118878;28;20050;-80
2021/10/07 05:58:52;;;;;;;0.68;0.57;;;10.10;94.10;;;;;;5096630;28;20035;-80
2021/10/07 06:01:17;;;;;;;0.70;0.60;;;10.10;94.10;;;;;;5079621;28;20039;-81
2021/10/07 06:03:43;;;;;;;0.52;0.52;;;10.10;94.10;;;;;;5095125;28;20093;-83
2021/10/07 06:06:09;;;;;;;0.40;0.40;;;10.10;94.10;;;;;;5061203;28;20150;-81
2021/10/07 06:08:36;;;;;;;0.30;0.30;;;10.20;94.10;;;;;;5094302;28;20039;-81
2021/10/07 06:11:01;;;;;;;0.50;0.50;;;10.10;94.10;;;;;;5077907;28;20036;-81
2021/10/07 06:13:27;;;;;;;0.65;0.50;;;10.00;94.10;;;;;;5094468;28;20039;-79
2021/10/07 06:15:53;;;;;;;0.52;0.45;;;10.00;94.10;;;;;;5097198;28;20047;-79
2021/10/07 06:18:20;;;;;;;0.57;0.40;;;10.00;94.10;;;;;;5096312;28;20093;-81
2021/10/07 06:20:46;;;;;;;2.92;0.50;;;10.00;94.10;;;;;;5077470;28;20039;-82
2021/10/07 06:23:12;;;;;;;0.93;0.73;;;10.10;94.10;;;;;;5089577;28;20044;-83
2021/10/07 06:25:38;;;;;;;0.40;0.40;;;10.00;94.10;;;;;;5064416;28;20385;-83
2021/10/07 06:28:07;;;;;;;0.57;0.40;;;10.00;94.10;;;;;;5060799;28;20055;-82
2021/10/07 06:30:34;;;;;;;0.40;0.40;;;10.10;94.40;;;;;;5060510;28;20054;-83
2021/10/07 06:33:03;;;;;;;0.38;0.38;;;10.00;94.30;;;;;;5060724;28;20480;-83
2021/10/07 06:35:29;;;;;;;0.47;0.38;;;10.00;94.10;;;;;;5061304;28;20036;-83
2021/10/07 06:38:55;;;;;;;0.50;0.50;;;10.00;94.10;;;;;;5051995;28;20049;-83
2021/10/07 06:41:22;;;;;;;1.10;0.73;;;10.10;94.10;;;;;;4971418;28;20067;-82
2021/10/07 06:43:48;;;;;;;0.95;0.60;;;10.00;94.10;;;;;;4942574;28;20054;-81
2021/10/07 06:46:14;;;;;;;0.70;0.52;;;10.10;94.10;;;;;;4972971;28;20043;-82
2021/10/07 06:48:40;;;;;;;0.68;0.60;;;10.10;94.10;;;;;;4973007;28;20049;-81
2021/10/07 06:51:09;;;;;;;0.50;0.43;;;10.00;94.00;;;;;;4973481;28;20420;-81
2021/10/07 06:53:36;;;;;;;0.65;0.60;;;10.10;94.00;;;;;;4957227;28;20053;-81
2021/10/07 06:56:03;;;;;;;0.32;0.30;;;10.10;94.00;;;;;;4976715;28;20051;-80
2021/10/07 06:58:34;;;;;;;0.47;0.47;;;10.20;94.00;;;;;;4942938;28;20489;-85
2021/10/07 07:09:24;;;;;;;0.50;0.50;;;10.20;93.90;;;;;;4983221;28;20060;-84
2021/10/07 07:12:22;;;;;;;0.45;0.45;;;10.30;93.90;;;;;;4988290;28;20053;-84
2021/10/07 07:16:03;;;;;;;0.52;0.40;;;10.30;93.80;;;;;;4975053;28;20058;-84
2021/10/07 07:18:29;;;;;;;1.00;0.70;;;10.30;93.80;;;;;;4932676;29;20051;-83
2021/10/07 07:21:31;;;;;;;0.35;0.35;;;10.50;93.80;;;;;;4934613;29;20050;-83
2021/10/07 07:29:09;;;;;;;0.32;0.32;;;10.30;93.80;;;;;;4913414;29;20107;-84
2021/10/07 07:34:47;;;;;;;0.52;0.30;;;10.50;93.80;;;;;;4838332;29;20126;-82
2021/10/07 07:38:03;;;;;;;0.63;0.50;;;10.50;93.70;;;;;;4839345;29;20046;-82
2021/10/07 07:41:15;;;;;;;0.90;0.60;;;10.60;93.70;;;;;;4831670;29;20085;-82
2021/10/07 07:43:36;;;;;;;0.85;0.60;;;10.50;93.70;;;;;;4851174;29;20707;-83
2021/10/07 07:57:07;;;;;;;1.33;0.70;;;10.70;93.70;;;;;;4877855;29;20150;-85
2021/10/07 07:59:33;;;;;;;0.40;0.40;;;10.70;93.60;;;;;;4889358;29;20059;-82
2021/10/07 08:02:22;;;;;;;0.50;0.50;;;10.80;93.60;;;;;;4835278;29;20066;-81
2021/10/07 08:04:53;;;;;;;0.70;0.57;;;10.90;93.60;;;;;;4806271;29;20052;-84
2021/10/07 08:07:22;;;;;;;2.95;0.50;;;10.90;93.60;;;;;;4835946;29;20042;-81
2021/10/07 08:09:55;;;;;;;0.98;0.70;;;10.90;93.60;;;;;;4819767;29;20042;-81
2021/10/07 08:12:34;;;;;;;0.63;0.40;;;10.90;93.60;;;;;;4806717;29;20080;-79
2021/10/07 08:15:42;;;;;;;1.30;0.60;;;11.00;93.60;;;;;;4834628;29;20050;-82
2021/10/07 08:21:33;;;;;;;1.90;0.98;;;11.10;93.60;;;;;;4804266;29;20383;-82
2021/10/07 08:25:05;;;;;;;1.60;1.00;;;11.20;93.50;;;;;;4811811;29;20038;-80
2021/10/07 08:27:52;;;;;;;1.80;1.00;;;11.30;93.50;;;;;;4853915;29;20062;-81
2021/10/07 08:30:19;;;;;;;1.33;0.82;;;11.20;93.40;;;;;;4805987;29;20039;-79
2021/10/07 08:32:45;;;;;;;1.15;0.90;;;11.30;93.50;;;;;;4810189;29;20065;-79
2021/10/07 08:39:12;;;;;;;0.93;0.70;;;11.40;93.50;;;;;;4758381;30;20063;-82
2021/10/07 08:42:11;;;;;;;1.55;0.85;;;11.40;93.40;;;;;;4780808;30;20089;-79
2021/10/07 08:45:10;;;;;;;2.08;1.00;;;11.60;93.50;;;;;;4736348;30;20051;-80
2021/10/07 08:47:44;;;;;;;2.30;1.17;;;11.50;93.70;;;;;;4716891;30;20606;-80
2021/10/07 08:50:14;;;;;;;2.90;1.42;;;11.50;93.40;;;;;;4751578;30;20497;-80
2021/10/07 08:56:20;;;;;;;2.00;1.10;;;11.30;93.50;;;;;;4784686;29;20039;-78
2021/10/07 09:10:46;;;;;;;2.25;0.80;;;11.70;93.50;;;;;;4807115;29;20061;-82
2021/10/07 09:16:43;;;;;;;1.85;0.98;;;11.90;93.30;;;;;;4817200;29;20053;-80
2021/10/07 09:19:37;;;;;;;1.60;0.90;;;12.00;93.30;;;;;;4806334;29;20119;-80
2021/10/07 09:22:23;;;;;;;1.33;0.88;;;12.10;93.50;;;;;;4797205;29;20076;-78
2021/10/07 09:24:54;;;;;;;1.50;0.98;;;12.10;93.20;;;;;;4789611;29;20168;-78
2021/10/07 09:27:24;;;;;;;1.13;0.80;;;12.00;93.20;;;;;;4825309;29;20046;-79
2021/10/07 09:29:53;;;;;;;2.53;1.30;;;12.10;93.40;;;;;;4794910;29;20050;-81
2021/10/07 09:32:30;;;;;;;1.25;0.85;;;12.30;93.40;;;;;;4809422;29;20054;-79
2021/10/07 09:34:59;;;;;;;2.50;1.20;;;12.40;93.30;;;;;;4832853;29;20061;-79
2021/10/07 09:37:28;;;;;;;2.22;1.30;;;12.50;93.20;;;;;;4850544;29;20132;-80
2021/10/07 09:40:02;;;;;;;2.22;1.33;;;12.50;93.20;;;;;;4848301;29;20072;-80
2021/10/07 09:42:34;;;;;;;1.63;1.00;;;12.50;93.10;;;;;;4872587;29;20042;-80
2021/10/07 09:45:03;;;;;;;1.83;1.10;;;12.50;93.20;;;;;;4941042;29;20043;-81
2021/10/07 09:47:32;;;;;;;1.92;1.10;;;12.60;93.20;;;;;;5026847;28;20041;-81
2021/10/07 09:50:11;;;;;;;2.00;1.17;;;12.70;93.20;;;;;;4994645;28;20050;-79
2021/10/07 09:53:15;;;;;;;1.25;0.77;;;12.80;93.10;;;;;;5025103;28;20126;-81
2021/10/07 09:55:53;;;;;;;1.08;0.88;;;12.80;93.10;;;;;;5094363;28;20430;-80
2021/10/07 09:58:24;;;;;;;1.90;1.20;;;12.70;93.00;;;;;;5081970;28;20498;-81
2021/10/07 10:01:20;;;;;;;2.33;1.35;;;12.70;93.20;;;;;;5042747;28;20418;-84
2021/10/07 10:07:03;;;;;;;0.70;0.70;;;12.70;93.20;;;;;;4919658;29;20040;-83
2021/10/07 10:09:32;;;;;;;1.13;0.82;;;12.70;93.20;;;;;;4935959;29;20052;-81
2021/10/07 10:12:06;;;;;;;1.58;1.10;;;12.80;93.20;;;;;;4920839;29;20070;-83
2021/10/07 10:14:32;;;;;;;2.03;1.10;;;12.80;93.20;;;;;;4881966;29;20036;-81
2021/10/07 10:17:02;;;;;;;1.60;0.90;;;12.80;93.20;;;;;;4913804;29;20613;-83
2021/10/07 10:27:41;;;;;;;1.50;1.00;;;12.90;93.20;;;;;;4737041;30;20202;-83
2021/10/07 10:49:24;;;;;;;1.65;1.17;;;12.80;93.20;;;;;;4879277;29;20052;-82
2021/10/07 10:51:49;;;;;;;1.52;0.93;;;12.90;93.20;;;;;;4833351;29;20038;-79
2021/10/07 10:54:15;;;;;;;1.98;1.17;;;12.90;93.20;;;;;;4827638;29;20559;-77
2021/10/07 10:56:56;;;;;;;2.45;1.27;;;13.00;93.20;;;;;;4833164;29;20518;-79
2021/10/07 10:59:24;;;;;;;1.55;1.13;;;13.10;93.10;;;;;;4880249;28;20063;-77
2021/10/07 11:02:21;;;;;;;1.98;1.05;;;13.20;93.00;;;;;;4977803;28;20042;-78
2021/10/07 11:04:49;;;;;;;2.30;1.30;;;13.30;92.90;;;;;;4976866;28;20116;-78
2021/10/07 11:07:23;;;;;;;1.45;1.02;;;13.30;92.90;;;;;;4977349;28;20136;-78
2021/10/07 11:10:09;;;;;;;1.38;1.10;;;13.30;92.90;;;;;;4992997;28;20085;-78
2021/10/07 11:12:49;;;;;;;1.70;1.10;;;13.40;92.90;;;;;;5008245;28;20122;-78
2021/10/07 11:15:16;;;;;;;1.83;1.10;;;13.50;92.90;;;;;;5052339;28;20048;-78
2021/10/07 11:17:44;;;;;;;1.20;0.90;;;13.40;92.90;;;;;;5052405;28;20041;-78
2021/10/07 11:20:16;;;;;;;2.30;0.98;;;13.50;92.90;;;;;;5035573;28;20056;-78
2021/10/07 11:23:00;;;;;;;1.38;1.00;;;13.50;92.90;;;;;;5074595;28;20044;-78
2021/10/07 11:25:27;;;;;;;2.45;1.33;;;13.50;92.90;;;;;;5114011;28;20100;-78
2021/10/07 11:27:53;;;;;;;1.13;0.98;;;13.50;92.90;;;;;;5098648;28;20094;-84
2021/10/07 11:30:22;;;;;;;2.13;1.30;;;13.60;92.90;;;;;;5080820;28;20487;-83
2021/10/07 11:32:48;;;;;;;2.13;1.23;;;13.50;93.00;;;;;;5080424;28;20047;-83
2021/10/07 11:35:19;;;;;;;1.98;1.30;;;13.50;93.00;;;;;;5087562;28;20120;-81
2021/10/07 11:38:06;;;;;;;2.60;1.40;;;13.60;93.00;;;;;;5084881;28;20047;-81
2021/10/07 11:40:39;;;;;;;2.67;1.45;;;13.60;92.80;;;;;;5081910;28;20177;-82
2021/10/07 11:43:08;;;;;;;2.10;1.30;;;13.50;92.80;;;;;;5085265;28;20036;-82
2021/10/07 11:45:41;;;;;;;3.58;1.40;;;13.40;92.90;;;;;;5085480;28;20031;-81
2021/10/07 11:48:21;;;;;;;2.40;1.38;;;13.40;92.90;;;;;;5085792;28;20114;-80
2021/10/07 11:50:54;;;;;;;2.20;1.40;;;13.50;93.00;;;;;;5020413;28;20131;-85
2021/10/07 11:54:04;;;;;;;1.98;1.27;;;13.50;93.00;;;;;;5015297;28;20056;-84
2021/10/07 11:57:07;;;;;;;2.80;1.42;;;13.70;93.00;;;;;;4969806;28;20504;-85
2021/10/07 11:59:42;;;;;;;2.35;1.45;;;13.80;92.80;;;;;;4920162;29;20054;-84
2021/10/07 12:02:11;;;;;;;1.80;1.27;;;13.80;92.70;;;;;;4958388;29;20117;-83
2021/10/07 12:04:37;;;;;;;2.63;1.40;;;13.70;92.70;;;;;;4923556;29;20043;-85
2021/10/07 12:07:13;;;;;;;2.10;1.20;;;13.70;92.80;;;;;;4925435;29;20142;-85
2021/10/07 12:09:43;;;;;;;3.30;1.70;;;13.80;92.80;;;;;;4920672;29;20185;-83
2021/10/07 12:12:16;;;;;;;2.13;1.30;;;14.00;92.70;;;;;;4936594;29;20047;-84
2021/10/07 12:15:01;;;;;;;1.88;1.20;;;14.10;92.60;;;;;;4868257;29;20483;-84
2021/10/07 12:17:30;;;;;;;2.10;1.30;;;14.20;92.50;;;;;;4881975;29;20049;-83
2021/10/07 12:19:57;;;;;;;2.50;1.63;;;14.30;92.50;;;;;;4863085;29;20567;-84
2021/10/07 12:22:26;;;;;;;2.53;1.50;;;14.50;92.40;;;;;;4880110;29;20179;-83
2021/10/07 12:24:58;;;;;;;2.65;1.50;;;14.60;92.30;;;;;;4867225;29;20079;-82
2021/10/07 12:27:32;;;;;;;2.10;1.30;;;14.80;92.20;;;;;;4920754;29;20048;-84
2021/10/07 12:30:07;;;;;;;2.28;1.60;;;14.70;92.00;;;;;;4923383;28;20493;-83
2021/10/07 12:32:32;;;;;;;2.72;1.55;;;14.70;91.90;;;;;;4939941;28;20486;-83
2021/10/07 12:34:58;;;;;;;2.63;1.48;;;14.80;91.90;;;;;;4977930;28;20042;-84
2021/10/07 12:37:59;;;;;;;2.90;1.60;;;14.60;92.00;;;;;;4975839;28;20058;-84
2021/10/07 12:40:27;;;;;;;2.13;1.42;;;14.90;92.10;;;;;;4940026;29;20082;-83
2021/10/07 12:42:56;;;;;;;1.80;1.30;;;14.90;92.00;;;;;;4953559;29;20043;-83
2021/10/07 12:45:26;;;;;;;2.58;1.40;;;15.00;91.90;;;;;;4948144;28;20039;-83
2021/10/07 12:47:59;;;;;;;1.52;1.10;;;15.10;91.80;;;;;;4956950;28;20050;-81
2021/10/07 12:51:26;;;;;;;2.83;1.58;;;15.00;91.80;;;;;;4970587;28;20646;-81
2021/10/07 12:57:46;;;;;;;2.05;1.25;;;15.10;91.80;;;;;;4963180;28;20061;-82
2021/10/07 13:00:33;;;;;;;1.90;1.20;;;15.10;91.70;;;;;;4941188;28;20050;-82
2021/10/07 13:03:00;;;;;;;1.77;1.10;;;15.00;91.80;;;;;;4956310;28;20429;-81
2021/10/07 13:05:34;;;;;;;1.95;1.10;;;15.00;91.90;;;;;;4957782;28;20068;-84
2021/10/07 13:08:03;;;;;;;2.05;1.45;;;15.00;91.80;;;;;;4972326;28;20093;-83
2021/10/07 13:10:31;;;;;;;1.55;1.10;;;15.10;91.90;;;;;;4956582;28;20054;-83
2021/10/07 13:12:57;;;;;;;1.27;1.05;;;15.00;91.80;;;;;;4940162;28;20081;-84
2021/10/07 13:15:45;;;;;;;2.13;1.40;;;15.00;91.80;;;;;;4949883;28;20045;-85
2021/10/07 13:18:13;;;;;;;1.60;1.20;;;15.10;91.90;;;;;;4898252;29;20055;-83
2021/10/07 13:24:16;;;;;;;1.40;1.00;;;15.30;91.70;;;;;;4937976;29;20166;-83
2021/10/07 13:26:57;;;;;;;0.95;0.77;;;15.40;91.70;;;;;;4943350;28;20055;-84
2021/10/07 13:32:50;;;;;;;1.50;0.90;;;15.30;91.60;;;;;;4885346;29;20053;-82
2021/10/07 13:38:48;;;;;;;2.17;1.20;;;15.30;91.70;;;;;;4848503;29;20060;-88
2021/10/07 13:41:19;;;;;;;1.40;0.95;;;15.20;91.70;;;;;;4844901;29;20056;-87
2021/10/07 13:43:51;;;;;;;2.13;1.15;;;15.20;91.60;;;;;;4899360;29;20541;-83
2021/10/07 13:46:33;;;;;;;1.85;1.10;;;15.30;91.60;;;;;;4869188;29;20054;-89
2021/10/07 13:52:54;;;;;;;1.38;1.15;;;15.20;91.60;;;;;;4850638;29;20050;-88
2021/10/07 13:55:20;;;;;;;2.17;1.23;;;15.20;91.50;;;;;;4858915;29;20115;-80
2021/10/07 13:57:47;;;;;;;1.98;1.10;;;15.00;91.50;;;;;;4843047;29;20488;-78
2021/10/07 14:00:13;;;;;;;2.63;1.40;;;15.10;91.60;;;;;;4864092;29;20065;-78
2021/10/07 14:02:39;;;;;;;2.63;1.50;;;15.00;91.90;;;;;;4864427;29;20049;-77
2021/10/07 14:05:06;;;;;;;2.05;1.30;;;15.10;91.70;;;;;;4869530;29;20144;-77
2021/10/07 14:07:31;;;;;;;2.20;1.30;;;14.90;91.60;;;;;;4847094;29;20505;-80
2021/10/07 14:09:57;;;;;;;1.85;1.10;;;14.90;91.60;;;;;;4914887;29;20047;-80
2021/10/07 14:12:23;;;;;;;2.08;1.27;;;14.90;91.60;;;;;;4961485;28;20039;-81
2021/10/07 14:14:49;;;;;;;1.92;1.25;;;15.00;91.60;;;;;;4899925;29;20140;-81
2021/10/07 14:17:14;;;;;;;1.67;1.17;;;14.80;91.60;;;;;;4898103;29;20056;-80
2021/10/07 14:19:43;;;;;;;2.17;1.20;;;14.80;91.60;;;;;;4898980;29;20052;-86
2021/10/07 14:22:09;;;;;;;1.55;1.10;;;14.80;91.70;;;;;;4913556;28;20047;-81
2021/10/07 14:24:35;;;;;;;2.00;1.20;;;14.70;91.70;;;;;;5023080;28;20127;-81
2021/10/07 14:27:03;;;;;;;1.30;0.90;;;14.70;91.70;;;;;;5021681;28;20049;-84
2021/10/07 14:29:34;;;;;;;1.42;1.08;;;14.80;91.70;;;;;;4999320;28;20152;-81
2021/10/07 14:39:46;;;;;;;2.75;1.55;;;14.50;91.70;;;;;;4896420;29;20145;-77
2021/10/07 14:42:13;;;;;;;2.67;1.63;;;14.50;91.70;;;;;;4882053;29;20064;-78
2021/10/07 14:44:38;;;;;;;1.77;1.20;;;14.60;91.70;;;;;;4882922;29;20053;-77
2021/10/07 14:47:04;;;;;;;1.95;1.30;;;14.50;91.70;;;;;;4935677;29;20198;-75
2021/10/07 14:49:30;;;;;;;1.17;0.88;;;14.50;91.70;;;;;;4904131;29;20079;-77
2021/10/07 14:51:56;;;;;;;1.65;1.17;;;14.40;91.70;;;;;;4903633;29;20464;-76
2021/10/07 14:54:22;;;;;;;1.88;1.15;;;14.50;91.70;;;;;;4935371;29;20052;-80
2021/10/07 17:18:13;;;;;;;0.70;0.47;;;11.80;86.50;;;;;;5155755;27;20195;-78
2021/10/07 17:20:39;;;;;;;1.65;0.95;;;11.70;88.10;;;;;;5116912;28;20046;-77
2021/10/07 17:23:04;;;;;;;2.03;1.05;;;11.70;90.10;;;;;;5098612;28;20114;-76